createdAt,value
2019-05-09T00:02:37.991Z,0.30
2019-05-09T00:05:25.491Z,0.40
2019-05-09T00:08:13.901Z,0.30
2019-05-09T00:11:03.705Z,0.30
2019-05-09T00:13:50.743Z,0.37
2019-05-09T00:16:38.056Z,0.37
2019-05-09T00:19:25.550Z,0.47
2019-05-09T00:22:13.927Z,0.40
2019-05-09T00:25:06.040Z,0.30
2019-05-09T00:27:53.760Z,0.40
2019-05-09T00:31:03.866Z,0.50
2019-05-09T00:33:56.229Z,0.50
2019-05-09T00:36:44.112Z,0.47
2019-05-09T00:39:33.989Z,0.50
2019-05-09T00:42:23.981Z,0.60
2019-05-09T00:45:33.387Z,0.50
2019-05-09T00:48:24.244Z,0.50
2019-05-09T00:51:14.052Z,0.53
2019-05-09T00:54:01.156Z,0.50
2019-05-09T00:56:48.971Z,0.50
2019-05-09T00:59:36.449Z,0.47
2019-05-09T01:02:26.399Z,0.60
2019-05-09T01:05:13.991Z,0.60
2019-05-09T01:08:04.190Z,0.50
2019-05-09T01:10:52.987Z,0.57
2019-05-09T01:13:43.307Z,0.40
2019-05-09T01:16:30.753Z,0.50
2019-05-09T01:19:18.808Z,0.50
2019-05-09T01:22:06.251Z,0.63
2019-05-09T01:24:54.238Z,0.80
2019-05-09T01:27:43.135Z,0.50
2019-05-09T01:30:33.419Z,0.50
2019-05-09T01:33:29.803Z,0.40
2019-05-09T01:36:17.105Z,0.40
2019-05-09T01:39:06.010Z,0.50
2019-05-09T01:41:53.293Z,0.60
2019-05-09T01:44:44.049Z,0.47
2019-05-09T01:47:31.070Z,0.50
2019-05-09T01:50:18.892Z,0.50
2019-05-09T01:53:06.820Z,0.60
2019-05-09T01:56:00.394Z,0.60
2019-05-09T01:58:48.121Z,0.50
2019-05-09T02:01:36.132Z,0.47
2019-05-09T02:04:24.405Z,0.50
2019-05-09T02:07:13.257Z,0.40
2019-05-09T02:10:03.243Z,0.60
2019-05-09T02:12:50.483Z,0.50
2019-05-09T02:15:48.554Z,0.50
2019-05-09T02:19:04.428Z,0.60
2019-05-09T02:21:53.108Z,0.50
2019-05-09T02:24:41.354Z,0.50
2019-05-09T02:27:29.026Z,0.60
2019-05-09T02:30:19.079Z,0.60
2019-05-09T02:33:06.257Z,0.60
2019-05-09T02:35:58.230Z,0.50
2019-05-09T02:38:42.780Z,0.70
2019-05-09T02:41:30.887Z,0.60
2019-05-09T02:44:19.594Z,0.50
2019-05-09T02:47:12.928Z,0.60
2019-05-09T02:50:00.269Z,0.57
2019-05-09T02:52:48.671Z,0.57
2019-05-09T02:55:38.719Z,0.70
2019-05-09T02:58:28.300Z,0.70
2019-05-09T03:01:35.070Z,0.60
2019-05-09T03:04:22.903Z,0.70
2019-05-09T03:07:10.522Z,0.70
2019-05-09T03:09:58.373Z,0.60
2019-05-09T03:12:49.758Z,0.70
2019-05-09T03:15:35.706Z,0.60
2019-05-09T03:18:23.513Z,0.53
2019-05-09T03:21:25.696Z,0.57
2019-05-09T03:24:12.870Z,0.60
2019-05-09T03:27:08.321Z,0.60
2019-05-09T03:29:58.884Z,0.70
2019-05-09T03:32:49.072Z,0.70
2019-05-09T03:35:37.883Z,0.55
2019-05-09T03:38:25.544Z,0.70
2019-05-09T03:41:13.001Z,0.70
2019-05-09T03:44:00.570Z,0.70
2019-05-09T03:47:13.324Z,0.77
2019-05-09T03:50:08.402Z,0.50
2019-05-09T03:52:57.935Z,0.60
2019-05-09T03:55:44.640Z,0.60
2019-05-09T03:58:32.011Z,0.73
2019-05-09T04:01:19.171Z,0.53
2019-05-09T04:04:08.777Z,0.50
2019-05-09T04:06:58.058Z,0.70
2019-05-09T04:09:47.870Z,0.70
2019-05-09T04:12:37.433Z,0.43
2019-05-09T04:15:24.272Z,0.53
2019-05-09T04:18:11.660Z,0.60
2019-05-09T04:20:59.491Z,0.50
2019-05-09T04:23:48.080Z,0.53
2019-05-09T04:27:00.003Z,0.73
2019-05-09T04:29:48.418Z,0.60
2019-05-09T04:32:37.719Z,0.50
2019-05-09T04:35:25.405Z,0.50
2019-05-09T04:38:13.217Z,0.50
2019-05-09T04:41:00.654Z,0.70
2019-05-09T04:43:48.797Z,0.60
2019-05-09T04:46:37.751Z,0.80
2019-05-09T04:49:25.184Z,0.60
2019-05-09T04:52:12.834Z,0.70
2019-05-09T04:54:59.921Z,0.70
2019-05-09T04:57:48.575Z,0.60
2019-05-09T05:00:57.299Z,0.60
2019-05-09T05:03:48.003Z,0.80
2019-05-09T05:06:35.380Z,0.70
2019-05-09T05:09:23.374Z,0.90
2019-05-09T05:12:11.215Z,0.60
2019-05-09T05:14:59.842Z,0.40
2019-05-09T05:17:47.819Z,0.60
2019-05-09T05:20:37.895Z,0.40
2019-05-09T05:23:30.653Z,0.40
2019-05-09T05:26:19.431Z,0.50
2019-05-09T05:29:08.443Z,0.50
2019-05-09T05:31:58.221Z,0.67
2019-05-09T05:35:07.605Z,0.60
2019-05-09T05:37:55.087Z,0.50
2019-05-09T05:40:46.103Z,0.60
2019-05-09T05:43:41.572Z,0.40
2019-05-09T05:46:41.213Z,0.40
2019-05-09T05:49:29.202Z,0.50
2019-05-09T05:52:18.525Z,0.70
2019-05-09T05:55:07.575Z,0.50
2019-05-09T05:57:57.829Z,0.50
2019-05-09T06:00:44.905Z,0.50
2019-05-09T06:03:32.501Z,0.70
2019-05-09T06:06:19.932Z,0.63
2019-05-09T06:09:08.392Z,0.80
2019-05-09T06:11:57.711Z,1.10
2019-05-09T06:14:45.215Z,1.10
2019-05-09T06:17:32.531Z,1.33
2019-05-09T06:20:20.370Z,1.40
2019-05-09T06:23:08.679Z,1.30
2019-05-09T06:25:58.730Z,1.30
2019-05-09T06:28:48.001Z,1.40
2019-05-09T06:31:35.031Z,1.10
2019-05-09T06:34:22.621Z,1.00
2019-05-09T06:37:10.900Z,1.10
2019-05-09T06:39:58.698Z,1.43
2019-05-09T06:42:48.686Z,1.00
2019-05-09T06:45:53.891Z,1.10
2019-05-09T06:48:41.560Z,1.20
2019-05-09T06:51:29.141Z,1.20
2019-05-09T06:54:17.512Z,1.30
2019-05-09T06:57:05.084Z,1.20
2019-05-09T06:59:52.822Z,1.00
2019-05-09T07:02:48.347Z,1.10
2019-05-09T07:05:53.723Z,1.40
2019-05-09T07:08:47.734Z,1.13
2019-05-09T07:11:35.325Z,1.30
2019-05-09T07:14:37.895Z,0.80
2019-05-09T07:17:23.252Z,1.10
2019-05-09T07:20:10.648Z,0.80
2019-05-09T07:22:58.543Z,1.00
2019-05-09T07:26:07.950Z,1.13
2019-05-09T07:28:55.479Z,0.90
2019-05-09T07:31:57.341Z,0.90
2019-05-09T07:34:48.446Z,0.80
2019-05-09T07:37:37.846Z,0.60
2019-05-09T07:40:30.151Z,0.63
2019-05-09T07:43:14.519Z,0.83
2019-05-09T07:46:08.820Z,0.80
2019-05-09T07:48:57.774Z,0.80
2019-05-09T07:51:47.651Z,0.73
2019-05-09T07:54:34.677Z,0.80
2019-05-09T07:57:22.814Z,1.10
2019-05-09T08:00:14.054Z,0.90
2019-05-09T08:03:01.309Z,0.70
2019-05-09T08:05:49.347Z,0.83
2019-05-09T08:08:38.487Z,0.80
2019-05-09T08:11:28.476Z,0.60
2019-05-09T08:14:17.684Z,0.73
2019-05-09T08:17:08.396Z,0.90
2019-05-09T08:19:55.529Z,0.80
2019-05-09T08:22:50.775Z,0.80
2019-05-09T08:25:32.147Z,0.90
2019-05-09T08:28:20.311Z,0.47
2019-05-09T08:31:08.392Z,0.80
2019-05-09T08:33:59.020Z,0.53
2019-05-09T08:36:47.785Z,0.70
2019-05-09T08:39:38.084Z,0.50
2019-05-09T08:42:24.834Z,0.50
2019-05-09T08:45:24.491Z,0.40
2019-05-09T08:48:02.595Z,0.80
2019-05-09T08:50:58.230Z,0.70
2019-05-09T08:53:48.007Z,0.93
2019-05-09T08:56:34.742Z,0.77
2019-05-09T08:59:21.926Z,0.70
2019-05-09T09:02:15.237Z,0.60
2019-05-09T09:04:59.501Z,0.70
2019-05-09T09:07:48.514Z,0.50
2019-05-09T09:10:38.469Z,1.10
2019-05-09T09:13:28.344Z,0.57
2019-05-09T09:16:22.082Z,0.50
2019-05-09T09:19:08.704Z,1.30
2019-05-09T09:22:00.497Z,1.03
2019-05-09T09:24:48.200Z,0.70
2019-05-09T09:27:37.874Z,0.60
2019-05-09T09:30:25.409Z,0.57
2019-05-09T09:33:13.943Z,0.60
2019-05-09T09:36:01.720Z,1.17
2019-05-09T09:38:49.049Z,0.63
2019-05-09T09:41:38.595Z,1.30
2019-05-09T09:44:25.641Z,0.77
2019-05-09T09:47:20.614Z,0.73
2019-05-09T09:50:05.180Z,0.70
2019-05-09T09:52:53.934Z,0.60
2019-05-09T09:55:41.325Z,0.60
2019-05-09T09:58:28.705Z,0.70
2019-05-09T10:01:28.782Z,0.50
2019-05-09T10:04:24.002Z,0.50
2019-05-09T10:07:08.887Z,0.80
2019-05-09T10:09:58.403Z,1.00
2019-05-09T10:12:49.378Z,0.97
2019-05-09T10:15:43.949Z,0.70
2019-05-09T10:18:39.171Z,0.77
2019-05-09T10:21:33.077Z,0.97
2019-05-09T10:24:20.760Z,0.80
2019-05-09T10:27:18.637Z,0.40
2019-05-09T10:30:06.142Z,0.40
2019-05-09T10:32:53.933Z,0.50
2019-05-09T10:35:41.716Z,0.70
2019-05-09T10:38:29.062Z,0.53
2019-05-09T10:41:16.491Z,0.50
2019-05-09T10:44:28.323Z,0.60
2019-05-09T10:47:23.507Z,0.70
2019-05-09T10:50:11.408Z,0.60
2019-05-09T10:53:00.009Z,0.50
2019-05-09T10:55:48.133Z,0.60
2019-05-09T10:58:37.430Z,0.70
2019-05-09T11:01:25.135Z,0.40
2019-05-09T11:04:12.722Z,0.60
2019-05-09T11:07:00.691Z,0.30
2019-05-09T11:09:48.727Z,0.70
2019-05-09T11:12:36.723Z,1.20
2019-05-09T11:15:25.134Z,0.50
2019-05-09T11:18:13.763Z,0.50
2019-05-09T11:21:01.114Z,0.40
2019-05-09T11:23:49.190Z,0.60
2019-05-09T11:26:39.530Z,0.80
2019-05-09T11:29:28.062Z,0.40
2019-05-09T11:32:17.868Z,0.50
2019-05-09T11:35:09.044Z,0.40
2019-05-09T11:37:59.089Z,0.30
2019-05-09T11:40:48.214Z,0.33
2019-05-09T11:43:38.809Z,0.33
2019-05-09T11:46:25.123Z,0.60
2019-05-09T11:49:12.600Z,0.30
2019-05-09T11:52:00.415Z,0.30
2019-05-09T11:54:48.400Z,0.50
2019-05-09T11:57:38.189Z,0.40
2019-05-09T12:00:25.018Z,0.40
2019-05-09T12:03:14.108Z,0.57
2019-05-09T12:06:01.872Z,0.60
2019-05-09T12:08:49.257Z,0.57
2019-05-09T12:11:40.072Z,0.67
2019-05-09T12:14:27.723Z,0.50
2019-05-09T12:17:19.271Z,0.50
2019-05-09T12:20:12.413Z,0.30
2019-05-09T12:22:58.174Z,0.27
2019-05-09T12:25:45.087Z,0.40
2019-05-09T12:28:32.519Z,0.37
2019-05-09T12:31:19.837Z,0.20
2019-05-09T12:34:09.111Z,0.43
2019-05-09T12:36:58.575Z,0.40
2019-05-09T12:39:47.829Z,0.50
2019-05-09T12:42:34.690Z,0.40
2019-05-09T12:45:22.667Z,0.30
2019-05-09T12:48:15.346Z,0.40
2019-05-09T12:51:01.138Z,0.40
2019-05-09T12:53:48.816Z,0.60
2019-05-09T12:56:38.484Z,0.30
2019-05-09T12:59:28.531Z,0.50
2019-05-09T13:02:17.739Z,0.40
2019-05-09T13:05:04.726Z,0.30
2019-05-09T13:07:53.420Z,0.33
2019-05-09T13:10:41.097Z,0.50
2019-05-09T13:13:32.080Z,0.60
2019-05-09T13:16:50.777Z,0.40
2019-05-09T13:19:38.519Z,0.40
2019-05-09T13:22:28.384Z,0.40
2019-05-09T13:25:15.375Z,0.50
2019-05-09T13:28:02.973Z,0.53
2019-05-09T13:30:50.856Z,0.30
2019-05-09T13:33:41.476Z,0.57
2019-05-09T13:36:28.646Z,0.43
2019-05-09T13:39:17.907Z,0.70
2019-05-09T13:42:07.995Z,0.60
2019-05-09T13:44:56.508Z,0.33
2019-05-09T13:47:43.835Z,0.43
2019-05-09T13:50:31.053Z,0.43
2019-05-09T13:53:19.281Z,0.50
2019-05-09T13:56:08.454Z,0.50
2019-05-09T13:58:58.131Z,0.60
2019-05-09T14:01:44.650Z,0.47
2019-05-09T14:04:32.362Z,0.53
2019-05-09T14:07:20.106Z,0.40
2019-05-09T14:10:08.876Z,0.73
2019-05-09T14:13:06.897Z,0.40
2019-05-09T14:15:45.642Z,0.97
2019-05-09T14:18:32.870Z,0.70
2019-05-09T14:21:25.448Z,0.50
2019-05-09T14:24:15.060Z,0.53
2019-05-09T14:26:58.361Z,0.40
2019-05-09T14:29:46.380Z,0.80
2019-05-09T14:32:36.069Z,0.50
2019-05-09T14:35:24.946Z,0.73
2019-05-09T14:38:12.529Z,0.60
2019-05-09T14:41:00.000Z,0.80
2019-05-09T14:43:48.942Z,0.50
2019-05-09T14:46:36.262Z,0.70
2019-05-09T14:49:23.367Z,0.50
2019-05-09T14:52:10.671Z,0.53
2019-05-09T14:54:58.260Z,0.60
2019-05-09T14:57:47.978Z,0.70
2019-05-09T15:00:42.293Z,0.60
2019-05-09T15:03:30.246Z,0.50
2019-05-09T15:06:18.356Z,0.50
2019-05-09T15:09:08.594Z,0.87
2019-05-09T15:11:58.519Z,0.50
2019-05-09T15:14:47.877Z,0.40
2019-05-09T15:17:35.130Z,0.40
2019-05-09T15:20:22.825Z,0.40
2019-05-09T15:23:10.416Z,0.40
2019-05-09T15:25:58.777Z,0.50
2019-05-09T15:28:48.182Z,0.50
2019-05-09T15:31:39.275Z,0.40
2019-05-09T15:34:29.021Z,0.50
2019-05-09T15:37:18.620Z,0.40
2019-05-09T15:40:08.395Z,0.60
2019-05-09T15:42:55.284Z,0.50
2019-05-09T15:45:54.460Z,0.40
2019-05-09T15:48:42.273Z,0.40
2019-05-09T15:51:32.116Z,0.43
2019-05-09T15:54:18.843Z,0.50
2019-05-09T15:57:08.669Z,0.40
2019-05-09T15:59:55.413Z,0.50
2019-05-09T16:02:43.095Z,0.60
2019-05-09T16:05:31.884Z,0.40
2019-05-09T16:08:19.352Z,0.50
2019-05-09T16:11:08.727Z,0.40
2019-05-09T16:13:56.214Z,0.43
2019-05-09T16:16:43.919Z,0.40
2019-05-09T16:22:13.310Z,0.67
2019-05-09T16:25:00.605Z,0.40
2019-05-09T16:27:48.580Z,0.40
2019-05-09T16:30:38.328Z,0.40
2019-05-09T16:33:27.907Z,0.40
2019-05-09T16:36:17.612Z,0.40
2019-05-09T16:39:07.451Z,0.60
2019-05-09T16:41:55.036Z,0.47
2019-05-09T16:44:42.463Z,0.30
2019-05-09T16:47:32.972Z,0.30
2019-05-09T16:50:21.080Z,0.60
2019-05-09T16:53:09.610Z,0.50
2019-05-09T16:55:57.882Z,0.37
2019-05-09T16:58:45.609Z,0.40
2019-05-09T17:01:34.446Z,0.57
2019-05-09T17:04:21.542Z,0.87
2019-05-09T17:07:09.049Z,0.53
2019-05-09T17:09:59.105Z,0.33
2019-05-09T17:12:47.908Z,0.60
2019-05-09T17:15:35.057Z,0.47
2019-05-09T17:18:22.958Z,0.70
2019-05-09T17:21:28.516Z,0.50
2019-05-09T17:24:18.535Z,0.50
2019-05-09T17:27:08.693Z,0.67
2019-05-09T17:29:58.961Z,0.50
2019-05-09T17:32:47.460Z,0.63
2019-05-09T17:35:35.386Z,0.63
2019-05-09T17:38:22.579Z,0.50
2019-05-09T17:41:11.234Z,0.40
2019-05-09T17:43:58.730Z,0.60
2019-05-09T17:46:48.030Z,0.50
2019-05-09T17:49:37.497Z,0.77
2019-05-09T17:52:24.815Z,0.60
2019-05-09T17:55:12.850Z,0.70
2019-05-09T17:58:00.332Z,0.60
2019-05-09T18:00:50.282Z,0.80
2019-05-09T18:03:38.442Z,0.50
2019-05-09T18:06:28.147Z,0.60
2019-05-09T18:09:15.938Z,0.40
2019-05-09T18:12:03.584Z,0.57
2019-05-09T18:14:51.141Z,0.70
2019-05-09T18:17:38.873Z,0.90
2019-05-09T18:20:28.379Z,0.50
2019-05-09T18:23:17.684Z,0.70
2019-05-09T18:26:07.922Z,0.70
2019-05-09T18:29:01.009Z,0.70
2019-05-09T18:32:08.020Z,0.60
2019-05-09T18:35:08.086Z,0.60
2019-05-09T18:37:55.766Z,0.77
2019-05-09T18:40:43.398Z,0.70
2019-05-09T18:43:30.695Z,0.57
2019-05-09T18:46:21.515Z,0.60
2019-05-09T18:49:08.443Z,0.50
2019-05-09T18:52:03.409Z,0.50
2019-05-09T18:54:44.970Z,0.50
2019-05-09T18:57:33.258Z,0.50
2019-05-09T19:00:21.626Z,0.60
2019-05-09T19:03:09.159Z,0.50
2019-05-09T19:05:56.625Z,0.50
2019-05-09T19:08:44.277Z,0.63
2019-05-09T19:11:31.944Z,0.80
2019-05-09T19:14:21.323Z,0.80
2019-05-09T19:17:39.983Z,0.60
2019-05-09T19:20:38.038Z,0.90
2019-05-09T19:23:25.889Z,0.90
2019-05-09T19:26:31.251Z,0.80
2019-05-09T19:29:18.711Z,0.80
2019-05-09T19:32:06.725Z,0.67
2019-05-09T19:34:54.911Z,0.80
2019-05-09T19:37:42.206Z,0.70
2019-05-09T19:40:29.614Z,0.70
2019-05-09T19:43:17.160Z,0.90
2019-05-09T19:46:04.215Z,0.80
2019-05-09T19:48:51.988Z,0.77
2019-05-09T19:51:39.751Z,1.30
2019-05-09T19:54:27.108Z,0.90
2019-05-09T19:57:14.623Z,0.77
2019-05-09T20:00:02.207Z,1.37
2019-05-09T20:02:49.868Z,0.80
2019-05-09T20:05:36.953Z,0.53
2019-05-09T20:08:24.451Z,0.40
2019-05-09T20:11:26.370Z,0.60
2019-05-09T20:14:26.756Z,0.60
2019-05-09T20:17:14.152Z,0.57
2019-05-09T20:20:01.850Z,0.63
2019-05-09T20:22:52.891Z,0.50
2019-05-09T20:25:38.450Z,0.50
2019-05-09T20:28:25.889Z,0.70
2019-05-09T20:31:13.261Z,0.70
2019-05-09T20:34:00.660Z,0.73
2019-05-09T20:36:48.456Z,0.80
2019-05-09T20:39:38.619Z,0.60
2019-05-09T20:42:31.038Z,0.60
2019-05-09T20:45:18.677Z,0.70
2019-05-09T20:48:06.629Z,0.60
2019-05-09T20:50:54.480Z,0.83
2019-05-09T20:53:42.361Z,0.60
2019-05-09T20:56:30.779Z,0.53
2019-05-09T20:59:18.722Z,0.53
2019-05-09T21:02:06.591Z,0.80
2019-05-09T21:04:54.221Z,0.50
2019-05-09T21:07:41.989Z,0.53
2019-05-09T21:10:29.874Z,0.80
2019-05-09T21:13:17.444Z,0.70
2019-05-09T21:16:04.823Z,0.63
2019-05-09T21:18:53.753Z,0.80
2019-05-09T21:21:41.484Z,0.87
2019-05-09T21:24:30.300Z,0.70
2019-05-09T21:27:18.917Z,0.87
2019-05-09T21:30:07.196Z,0.60
2019-05-09T21:32:55.409Z,0.73
2019-05-09T21:35:43.483Z,1.00
2019-05-09T21:38:31.880Z,0.80
2019-05-09T21:41:20.039Z,0.70
2019-05-09T21:44:07.569Z,0.70
2019-05-09T21:46:58.956Z,0.70
2019-05-09T21:49:46.345Z,0.80
2019-05-09T21:52:33.547Z,1.20
2019-05-09T21:55:21.405Z,0.73
2019-05-09T21:58:09.544Z,0.80
2019-05-09T22:00:58.793Z,0.83
2019-05-09T22:03:46.217Z,0.67
2019-05-09T22:06:33.715Z,0.83
2019-05-09T22:09:21.405Z,0.70
2019-05-09T22:12:09.125Z,0.53
2019-05-09T22:14:56.648Z,0.50
2019-05-09T22:17:45.470Z,0.70
2019-05-09T22:20:33.098Z,0.70
2019-05-09T22:23:20.761Z,0.60
2019-05-09T22:26:09.602Z,0.83
2019-05-09T22:28:57.141Z,0.70
2019-05-09T22:31:44.264Z,0.53
2019-05-09T22:34:32.308Z,0.70
2019-05-09T22:37:20.163Z,0.50
2019-05-09T22:40:09.349Z,0.70
2019-05-09T22:42:56.601Z,0.60
2019-05-09T22:45:45.042Z,0.50
2019-05-09T22:48:32.700Z,0.53
2019-05-09T22:51:20.391Z,0.67
2019-05-09T22:54:12.867Z,0.60
2019-05-09T22:56:57.572Z,0.60
2019-05-09T22:59:44.777Z,0.83
2019-05-09T23:02:32.291Z,0.53
2019-05-09T23:05:19.855Z,0.60
2019-05-09T23:08:07.180Z,0.73
2019-05-09T23:10:54.834Z,0.50
2019-05-09T23:13:54.328Z,0.40
2019-05-09T23:16:42.087Z,0.57
2019-05-09T23:19:29.669Z,0.63
2019-05-09T23:22:17.776Z,0.40
2019-05-09T23:25:05.979Z,0.50
2019-05-09T23:27:53.449Z,0.67
2019-05-09T23:30:41.036Z,0.60
2019-05-09T23:33:30.363Z,0.43
2019-05-09T23:36:17.486Z,0.80
2019-05-09T23:39:26.339Z,0.50
2019-05-09T23:42:13.798Z,0.60
2019-05-09T23:45:01.284Z,0.57
2019-05-09T23:47:50.023Z,0.50
2019-05-09T23:50:38.913Z,0.43
2019-05-09T23:53:37.346Z,0.60
2019-05-09T23:56:42.951Z,0.80
2019-05-09T23:59:47.846Z,0.40
